Terminal Aerodrome Forecast
Issued by NWS

Home | Current Version | Previous Version | Text Only | Print | Product List | Glossary On
Versions: 1 2 3 4 5 6 7 8 9 10 11 12 13
000
FTUS42 TJSJ 310500 RRA
TAFJMZ
TAF
TJMZ 310549Z 3106/0106 VRB04KT P6SM FEW030 SCT050
     FM311400 24010KT P6SM SCT030
     FM312200 VRB04KT P6SM SCT030
      AMD NOT SKED TIL 311600=

USA.gov is the U.S. government's official web portal to all federal, state and local government web resources and services.